Terminal Aerodrome Forecast
Issued by NWS Duluth, MN

Home | Current Version | Previous Version | Text Only | Print | Product List | Glossary On
Versions: 1 2 3 4 5 6 7 8 9 10 11 12 13 14 15 16 17 18 19 20 21 22 23 24
000
FTUS43 KDLH 232300
TAFINL
TAF
KINL 232333Z 2400/2424 26004KT P6SM OVC023
     FM240200 29007KT P6SM OVC010
     FM240600 29007KT P6SM OVC015
     FM241600 03005KT P6SM OVC015=

USA.gov is the U.S. government's official web portal to all federal, state and local government web resources and services.